Benito Juárez, Mexico

12:18 PM EST on August 27, 2016 (GMT -0500)
Cancun International | | Change Station

Elev 16 ft 21.04 °N, 86.88 °W | Updated 35 minutes ago

Mostly Cloudy
Mostly Cloudy
90 °F
Feels Like 102 °F
N
6
Wind Variable Wind from NNE

Today
High -- | Low -- °F
--% Chance of Precip.
Yesterday
High -- | Low -- °F
Precip. -- in
Pressure 29.90 in
Visibility 7.0 miles
Clouds Scattered Clouds 1800 ft
Mostly Cloudy 30000 ft
Heat Index 102 °F
Dew Point 77 °F
Humidity 66%
Rainfall 0.00 in
Snow Depth Not available.
6:30 AM 7:07 PM
Waning Crescent, 23% visible
METAR MMUN 271643Z 03005KT 7SM SCT018TCU BKN300 32/25 A2990 RMK 8/208
Pressure 29.90 in
Visibility 7.0 miles
Clouds Scattered Clouds 1800 ft
Mostly Cloudy 30000 ft
Heat Index 102 °F
Dew Point 77 °F
Humidity 66%
Rainfall 0.00 in
Snow Depth Not available.
6:30 AM 7:07 PM
Waning Crescent, 23% visible
METAR MMUN 271643Z 03005KT 7SM SCT018TCU BKN300 32/25 A2990 RMK 8/208

10-Day Weather Forecast

No radar image for this location.
×

Almanac

Astronomy

Aug. 27, 2016 Rise Set
Actual Time
Civil Twilight
Nautical Twilight
Astronomical Twilight
Moon
Length of Visible Light
Length of Day
Tomorrow will be .
, % of the Moon is Illuminated

Today's Extremes

Country Highs Country Lows

Community

WunderPhotos

Upload Photos

1,935,386 photos uploaded!

WunderBlog® & News

Nearby

Air Quality

  Air Quality AQ Index Pollutant
Not available.

Snow Depth

Station Depth Elevation

Earthquake Activity

City Distance Mag. Time & Date
Minimum magnitude displayed is 2.5.

Coastal Water Temperatures

Place Temperature

Stations

Nearby Weather Stations

Station Location Temp. Windchill Dew Point Humidity Wind Precip. Elev Updated Type